sensor_id;sensor_type;location;lat;lon;timestamp;P1;durP1;ratioP1;P2;durP2;ratioP2
67564;SDS011;54393;53.556;49.216;2022-07-06T00:01:41;1.08;;;1.08;;
67564;SDS011;54393;53.556;49.216;2022-07-06T00:04:07;1.40;;;1.15;;
67564;SDS011;54393;53.556;49.216;2022-07-06T00:06:34;1.17;;;1.15;;
67564;SDS011;54393;53.556;49.216;2022-07-06T00:09:01;1.50;;;1.40;;
67564;SDS011;54393;53.556;49.216;2022-07-06T00:11:30;1.20;;;1.12;;
67564;SDS011;54393;53.556;49.216;2022-07-06T00:13:56;1.20;;;1.20;;
67564;SDS011;54393;53.556;49.216;2022-07-06T00:16:23;1.60;;;1.40;;
67564;SDS011;54393;53.556;49.216;2022-07-06T00:18:49;1.45;;;1.35;;
67564;SDS011;54393;53.556;49.216;2022-07-06T00:21:16;1.05;;;1.05;;
67564;SDS011;54393;53.556;49.216;2022-07-06T00:23:43;1.20;;;1.20;;
67564;SDS011;54393;53.556;49.216;2022-07-06T00:26:09;1.40;;;1.30;;
67564;SDS011;54393;53.556;49.216;2022-07-06T00:28:36;1.27;;;1.27;;
67564;SDS011;54393;53.556;49.216;2022-07-06T00:31:02;1.50;;;1.40;;
67564;SDS011;54393;53.556;49.216;2022-07-06T00:33:31;1.02;;;1.02;;
67564;SDS011;54393;53.556;49.216;2022-07-06T00:35:57;1.10;;;1.10;;
67564;SDS011;54393;53.556;49.216;2022-07-06T00:38:24;1.27;;;1.27;;
67564;SDS011;54393;53.556;49.216;2022-07-06T00:40:50;1.67;;;1.58;;
67564;SDS011;54393;53.556;49.216;2022-07-06T00:43:17;1.37;;;1.30;;
67564;SDS011;54393;53.556;49.216;2022-07-06T00:45:43;0.90;;;0.90;;
67564;SDS011;54393;53.556;49.216;2022-07-06T00:48:09;1.17;;;1.17;;
67564;SDS011;54393;53.556;49.216;2022-07-06T00:50:37;1.50;;;1.40;;
67564;SDS011;54393;53.556;49.216;2022-07-06T00:53:04;1.20;;;1.10;;
67564;SDS011;54393;53.556;49.216;2022-07-06T00:55:33;1.45;;;1.35;;
67564;SDS011;54393;53.556;49.216;2022-07-06T00:58:01;1.48;;;1.10;;
67564;SDS011;54393;53.556;49.216;2022-07-06T01:00:29;1.08;;;1.05;;
67564;SDS011;54393;53.556;49.216;2022-07-06T01:02:56;1.00;;;1.00;;
67564;SDS011;54393;53.556;49.216;2022-07-06T01:05:23;0.98;;;0.98;;
67564;SDS011;54393;53.556;49.216;2022-07-06T01:07:50;1.08;;;1.05;;
67564;SDS011;54393;53.556;49.216;2022-07-06T01:10:18;0.93;;;0.93;;
67564;SDS011;54393;53.556;49.216;2022-07-06T01:12:45;1.10;;;1.10;;
67564;SDS011;54393;53.556;49.216;2022-07-06T01:15:16;1.30;;;1.20;;
67564;SDS011;54393;53.556;49.216;2022-07-06T01:17:44;1.10;;;1.10;;
67564;SDS011;54393;53.556;49.216;2022-07-06T01:20:11;1.48;;;1.37;;
67564;SDS011;54393;53.556;49.216;2022-07-06T01:22:39;1.17;;;1.10;;
67564;SDS011;54393;53.556;49.216;2022-07-06T01:25:05;0.95;;;0.95;;
67564;SDS011;54393;53.556;49.216;2022-07-06T01:27:36;1.10;;;1.10;;
67564;SDS011;54393;53.556;49.216;2022-07-06T01:30:05;1.10;;;1.10;;
67564;SDS011;54393;53.556;49.216;2022-07-06T01:32:33;1.00;;;1.00;;
67564;SDS011;54393;53.556;49.216;2022-07-06T01:35:00;1.10;;;1.10;;
67564;SDS011;54393;53.556;49.216;2022-07-06T01:37:27;0.95;;;0.95;;
67564;SDS011;54393;53.556;49.216;2022-07-06T01:39:53;2.03;;;1.12;;
67564;SDS011;54393;53.556;49.216;2022-07-06T01:42:22;1.10;;;1.10;;
67564;SDS011;54393;53.556;49.216;2022-07-06T01:44:49;1.58;;;1.48;;
67564;SDS011;54393;53.556;49.216;2022-07-06T01:47:15;0.98;;;0.98;;
67564;SDS011;54393;53.556;49.216;2022-07-06T01:49:42;1.27;;;1.20;;
67564;SDS011;54393;53.556;49.216;2022-07-06T01:52:08;1.00;;;1.00;;
67564;SDS011;54393;53.556;49.216;2022-07-06T01:54:35;0.88;;;0.88;;
67564;SDS011;54393;53.556;49.216;2022-07-06T01:57:01;1.35;;;1.25;;
67564;SDS011;54393;53.556;49.216;2022-07-06T01:59:28;1.10;;;1.00;;
67564;SDS011;54393;53.556;49.216;2022-07-06T02:01:54;1.05;;;1.05;;
67564;SDS011;54393;53.556;49.216;2022-07-06T02:04:21;0.80;;;0.80;;
67564;SDS011;54393;53.556;49.216;2022-07-06T02:06:48;0.70;;;0.70;;
67564;SDS011;54393;53.556;49.216;2022-07-06T02:09:14;1.02;;;1.02;;
67564;SDS011;54393;53.556;49.216;2022-07-06T02:11:43;1.17;;;1.10;;
67564;SDS011;54393;53.556;49.216;2022-07-06T02:14:10;0.93;;;0.93;;
67564;SDS011;54393;53.556;49.216;2022-07-06T02:16:37;0.80;;;0.80;;
67564;SDS011;54393;53.556;49.216;2022-07-06T02:19:03;1.00;;;1.00;;
67564;SDS011;54393;53.556;49.216;2022-07-06T02:21:29;1.08;;;0.95;;
67564;SDS011;54393;53.556;49.216;2022-07-06T02:23:56;1.10;;;1.10;;
67564;SDS011;54393;53.556;49.216;2022-07-06T02:26:22;1.00;;;0.90;;
67564;SDS011;54393;53.556;49.216;2022-07-06T02:28:49;0.82;;;0.82;;
67564;SDS011;54393;53.556;49.216;2022-07-06T02:31:16;0.90;;;0.90;;
67564;SDS011;54393;53.556;49.216;2022-07-06T02:33:42;0.80;;;0.80;;
67564;SDS011;54393;53.556;49.216;2022-07-06T02:36:09;0.90;;;0.90;;
67564;SDS011;54393;53.556;49.216;2022-07-06T02:38:35;1.30;;;1.20;;
67564;SDS011;54393;53.556;49.216;2022-07-06T02:41:02;0.90;;;0.90;;
67564;SDS011;54393;53.556;49.216;2022-07-06T02:43:28;0.98;;;0.93;;
67564;SDS011;54393;53.556;49.216;2022-07-06T02:45:57;1.10;;;1.02;;
67564;SDS011;54393;53.556;49.216;2022-07-06T02:48:24;1.00;;;1.00;;
67564;SDS011;54393;53.556;49.216;2022-07-06T02:50:50;0.90;;;0.90;;
67564;SDS011;54393;53.556;49.216;2022-07-06T02:53:17;0.65;;;0.65;;
67564;SDS011;54393;53.556;49.216;2022-07-06T02:55:44;1.05;;;1.05;;
67564;SDS011;54393;53.556;49.216;2022-07-06T02:58:11;0.95;;;0.95;;
67564;SDS011;54393;53.556;49.216;2022-07-06T03:00:37;1.27;;;1.08;;
67564;SDS011;54393;53.556;49.216;2022-07-06T03:03:04;0.82;;;0.82;;
67564;SDS011;54393;53.556;49.216;2022-07-06T03:05:30;0.90;;;0.90;;
67564;SDS011;54393;53.556;49.216;2022-07-06T03:07:57;1.35;;;0.93;;
67564;SDS011;54393;53.556;49.216;2022-07-06T03:10:23;0.80;;;0.80;;
67564;SDS011;54393;53.556;49.216;2022-07-06T03:12:49;0.80;;;0.80;;
67564;SDS011;54393;53.556;49.216;2022-07-06T03:15:16;0.60;;;0.60;;
67564;SDS011;54393;53.556;49.216;2022-07-06T03:17:42;0.93;;;0.82;;
67564;SDS011;54393;53.556;49.216;2022-07-06T03:20:09;0.93;;;0.90;;
67564;SDS011;54393;53.556;49.216;2022-07-06T03:22:36;0.80;;;0.80;;
67564;SDS011;54393;53.556;49.216;2022-07-06T03:25:02;1.00;;;0.90;;
67564;SDS011;54393;53.556;49.216;2022-07-06T03:27:29;0.90;;;0.90;;
67564;SDS011;54393;53.556;49.216;2022-07-06T03:29:55;0.90;;;0.90;;
67564;SDS011;54393;53.556;49.216;2022-07-06T03:32:22;0.77;;;0.77;;
67564;SDS011;54393;53.556;49.216;2022-07-06T03:34:48;0.93;;;0.93;;
67564;SDS011;54393;53.556;49.216;2022-07-06T03:37:15;0.93;;;0.93;;
67564;SDS011;54393;53.556;49.216;2022-07-06T03:39:41;0.80;;;0.80;;
67564;SDS011;54393;53.556;49.216;2022-07-06T03:42:07;0.85;;;0.85;;
67564;SDS011;54393;53.556;49.216;2022-07-06T03:44:34;0.77;;;0.77;;
67564;SDS011;54393;53.556;49.216;2022-07-06T03:47:00;0.88;;;0.80;;
67564;SDS011;54393;53.556;49.216;2022-07-06T03:49:27;1.10;;;1.00;;
67564;SDS011;54393;53.556;49.216;2022-07-06T03:51:53;0.90;;;0.90;;
67564;SDS011;54393;53.556;49.216;2022-07-06T03:54:20;1.17;;;1.08;;
67564;SDS011;54393;53.556;49.216;2022-07-06T03:56:46;0.70;;;0.70;;
67564;SDS011;54393;53.556;49.216;2022-07-06T03:59:13;0.70;;;0.70;;
67564;SDS011;54393;53.556;49.216;2022-07-06T04:01:40;0.82;;;0.75;;
67564;SDS011;54393;53.556;49.216;2022-07-06T04:04:06;0.88;;;0.88;;
67564;SDS011;54393;53.556;49.216;2022-07-06T04:06:33;0.93;;;0.80;;
67564;SDS011;54393;53.556;49.216;2022-07-06T04:09:02;0.82;;;0.82;;
67564;SDS011;54393;53.556;49.216;2022-07-06T04:11:28;0.90;;;0.90;;
67564;SDS011;54393;53.556;49.216;2022-07-06T04:13:55;0.68;;;0.68;;
67564;SDS011;54393;53.556;49.216;2022-07-06T04:16:21;0.75;;;0.75;;
67564;SDS011;54393;53.556;49.216;2022-07-06T04:18:48;0.77;;;0.77;;
67564;SDS011;54393;53.556;49.216;2022-07-06T04:21:14;0.90;;;0.90;;
67564;SDS011;54393;53.556;49.216;2022-07-06T04:23:41;0.82;;;0.82;;
67564;SDS011;54393;53.556;49.216;2022-07-06T04:26:07;0.60;;;0.60;;
67564;SDS011;54393;53.556;49.216;2022-07-06T04:28:34;0.65;;;0.65;;
67564;SDS011;54393;53.556;49.216;2022-07-06T04:31:00;0.60;;;0.60;;
67564;SDS011;54393;53.556;49.216;2022-07-06T04:33:27;0.60;;;0.60;;
67564;SDS011;54393;53.556;49.216;2022-07-06T04:35:53;0.90;;;0.90;;
67564;SDS011;54393;53.556;49.216;2022-07-06T04:38:20;0.80;;;0.80;;
67564;SDS011;54393;53.556;49.216;2022-07-06T04:40:46;3.08;;;0.82;;
67564;SDS011;54393;53.556;49.216;2022-07-06T04:43:13;2.65;;;0.80;;
67564;SDS011;54393;53.556;49.216;2022-07-06T04:45:39;0.60;;;0.60;;
67564;SDS011;54393;53.556;49.216;2022-07-06T04:48:06;1.15;;;0.60;;
67564;SDS011;54393;53.556;49.216;2022-07-06T04:50:33;1.20;;;0.90;;
67564;SDS011;54393;53.556;49.216;2022-07-06T04:52:59;1.30;;;1.00;;
67564;SDS011;54393;53.556;49.216;2022-07-06T04:55:26;2.90;;;1.00;;
67564;SDS011;54393;53.556;49.216;2022-07-06T04:57:52;3.17;;;1.10;;
67564;SDS011;54393;53.556;49.216;2022-07-06T05:00:20;2.97;;;0.90;;
67564;SDS011;54393;53.556;49.216;2022-07-06T05:02:46;0.77;;;0.70;;
67564;SDS011;54393;53.556;49.216;2022-07-06T05:05:13;2.05;;;1.10;;
67564;SDS011;54393;53.556;49.216;2022-07-06T05:07:39;1.45;;;0.90;;
67564;SDS011;54393;53.556;49.216;2022-07-06T05:10:09;2.05;;;0.95;;
67564;SDS011;54393;53.556;49.216;2022-07-06T05:12:36;2.15;;;1.00;;
67564;SDS011;54393;53.556;49.216;2022-07-06T05:15:03;0.75;;;0.70;;
67564;SDS011;54393;53.556;49.216;2022-07-06T05:17:30;1.52;;;0.93;;
67564;SDS011;54393;53.556;49.216;2022-07-06T05:19:57;1.83;;;0.77;;
67564;SDS011;54393;53.556;49.216;2022-07-06T05:22:23;4.72;;;1.05;;
67564;SDS011;54393;53.556;49.216;2022-07-06T05:24:50;1.30;;;0.90;;
67564;SDS011;54393;53.556;49.216;2022-07-06T05:27:17;1.00;;;0.90;;
67564;SDS011;54393;53.556;49.216;2022-07-06T05:29:43;1.17;;;1.08;;
67564;SDS011;54393;53.556;49.216;2022-07-06T05:32:10;1.87;;;0.70;;
67564;SDS011;54393;53.556;49.216;2022-07-06T05:34:36;3.42;;;1.00;;
67564;SDS011;54393;53.556;49.216;2022-07-06T05:37:03;6.00;;;1.35;;
67564;SDS011;54393;53.556;49.216;2022-07-06T05:39:30;4.45;;;1.23;;
67564;SDS011;54393;53.556;49.216;2022-07-06T05:41:56;9.07;;;1.50;;
67564;SDS011;54393;53.556;49.216;2022-07-06T05:44:23;4.22;;;1.20;;
67564;SDS011;54393;53.556;49.216;2022-07-06T05:46:49;3.53;;;1.05;;
67564;SDS011;54393;53.556;49.216;2022-07-06T05:49:15;2.47;;;0.90;;
67564;SDS011;54393;53.556;49.216;2022-07-06T05:52:01;4.90;;;1.10;;
67564;SDS011;54393;53.556;49.216;2022-07-06T05:54:27;2.62;;;1.10;;
67564;SDS011;54393;53.556;49.216;2022-07-06T05:56:54;4.55;;;1.30;;
67564;SDS011;54393;53.556;49.216;2022-07-06T05:59:20;2.47;;;0.93;;
67564;SDS011;54393;53.556;49.216;2022-07-06T06:01:46;1.35;;;0.85;;
67564;SDS011;54393;53.556;49.216;2022-07-06T06:04:13;4.57;;;0.90;;
67564;SDS011;54393;53.556;49.216;2022-07-06T06:06:40;3.22;;;0.93;;
67564;SDS011;54393;53.556;49.216;2022-07-06T06:09:06;1.08;;;0.70;;
67564;SDS011;54393;53.556;49.216;2022-07-06T06:11:32;6.70;;;1.10;;
67564;SDS011;54393;53.556;49.216;2022-07-06T06:13:59;2.72;;;0.90;;
67564;SDS011;54393;53.556;49.216;2022-07-06T06:16:25;2.50;;;0.95;;
67564;SDS011;54393;53.556;49.216;2022-07-06T06:18:52;2.25;;;1.10;;
67564;SDS011;54393;53.556;49.216;2022-07-06T06:21:18;2.75;;;0.93;;
67564;SDS011;54393;53.556;49.216;2022-07-06T06:23:45;1.50;;;0.80;;
67564;SDS011;54393;53.556;49.216;2022-07-06T06:26:11;2.22;;;0.90;;
67564;SDS011;54393;53.556;49.216;2022-07-06T06:28:37;2.90;;;0.82;;
67564;SDS011;54393;53.556;49.216;2022-07-06T06:31:04;0.82;;;0.82;;
67564;SDS011;54393;53.556;49.216;2022-07-06T06:33:30;2.87;;;0.80;;
67564;SDS011;54393;53.556;49.216;2022-07-06T06:35:57;2.45;;;1.05;;
67564;SDS011;54393;53.556;49.216;2022-07-06T06:38:23;3.25;;;0.90;;
67564;SDS011;54393;53.556;49.216;2022-07-06T06:40:54;0.90;;;0.80;;
67564;SDS011;54393;53.556;49.216;2022-07-06T06:43:21;1.12;;;0.82;;
67564;SDS011;54393;53.556;49.216;2022-07-06T06:45:47;0.95;;;0.75;;
67564;SDS011;54393;53.556;49.216;2022-07-06T06:48:14;1.60;;;1.30;;
67564;SDS011;54393;53.556;49.216;2022-07-06T06:50:42;2.25;;;0.80;;
67564;SDS011;54393;53.556;49.216;2022-07-06T06:53:09;1.20;;;0.98;;
67564;SDS011;54393;53.556;49.216;2022-07-06T06:55:36;0.88;;;0.88;;
67564;SDS011;54393;53.556;49.216;2022-07-06T06:58:03;0.57;;;0.52;;
67564;SDS011;54393;53.556;49.216;2022-07-06T07:00:30;0.88;;;0.82;;
67564;SDS011;54393;53.556;49.216;2022-07-06T07:02:57;0.55;;;0.50;;
67564;SDS011;54393;53.556;49.216;2022-07-06T07:05:23;2.15;;;0.65;;
67564;SDS011;54393;53.556;49.216;2022-07-06T07:07:50;1.85;;;1.08;;
67564;SDS011;54393;53.556;49.216;2022-07-06T07:10:16;1.25;;;0.80;;
67564;SDS011;54393;53.556;49.216;2022-07-06T07:12:43;2.50;;;0.80;;
67564;SDS011;54393;53.556;49.216;2022-07-06T07:15:10;2.10;;;0.88;;
67564;SDS011;54393;53.556;49.216;2022-07-06T07:17:37;0.93;;;0.70;;
67564;SDS011;54393;53.556;49.216;2022-07-06T07:20:04;2.40;;;0.93;;
67564;SDS011;54393;53.556;49.216;2022-07-06T07:22:31;0.70;;;0.70;;
67564;SDS011;54393;53.556;49.216;2022-07-06T07:24:57;0.90;;;0.90;;
67564;SDS011;54393;53.556;49.216;2022-07-06T07:27:24;1.27;;;0.90;;
67564;SDS011;54393;53.556;49.216;2022-07-06T07:29:51;2.03;;;1.08;;
67564;SDS011;54393;53.556;49.216;2022-07-06T07:32:18;2.28;;;0.85;;
67564;SDS011;54393;53.556;49.216;2022-07-06T07:34:45;1.52;;;0.70;;
67564;SDS011;54393;53.556;49.216;2022-07-06T07:37:11;1.55;;;0.95;;
67564;SDS011;54393;53.556;49.216;2022-07-06T07:39:38;1.65;;;1.05;;
67564;SDS011;54393;53.556;49.216;2022-07-06T07:42:04;1.25;;;0.62;;
67564;SDS011;54393;53.556;49.216;2022-07-06T07:44:31;1.10;;;0.88;;
67564;SDS011;54393;53.556;49.216;2022-07-06T07:46:58;0.82;;;0.65;;
67564;SDS011;54393;53.556;49.216;2022-07-06T07:49:24;0.77;;;0.70;;
67564;SDS011;54393;53.556;49.216;2022-07-06T07:51:50;4.25;;;1.02;;
67564;SDS011;54393;53.556;49.216;2022-07-06T07:54:17;5.25;;;1.10;;
67564;SDS011;54393;53.556;49.216;2022-07-06T07:56:44;1.58;;;0.80;;
67564;SDS011;54393;53.556;49.216;2022-07-06T07:59:10;3.12;;;1.20;;
67564;SDS011;54393;53.556;49.216;2022-07-06T08:01:37;2.35;;;1.00;;
67564;SDS011;54393;53.556;49.216;2022-07-06T08:04:03;1.10;;;0.85;;
67564;SDS011;54393;53.556;49.216;2022-07-06T08:06:30;1.42;;;1.00;;
67564;SDS011;54393;53.556;49.216;2022-07-06T08:08:56;1.23;;;0.90;;
67564;SDS011;54393;53.556;49.216;2022-07-06T08:11:23;1.83;;;1.00;;
67564;SDS011;54393;53.556;49.216;2022-07-06T08:13:49;1.30;;;0.70;;
67564;SDS011;54393;53.556;49.216;2022-07-06T08:16:16;0.77;;;0.77;;
67564;SDS011;54393;53.556;49.216;2022-07-06T08:18:42;0.80;;;0.80;;
67564;SDS011;54393;53.556;49.216;2022-07-06T08:21:09;4.65;;;1.15;;
67564;SDS011;54393;53.556;49.216;2022-07-06T08:23:36;2.10;;;1.05;;
67564;SDS011;54393;53.556;49.216;2022-07-06T08:26:02;1.83;;;1.02;;
67564;SDS011;54393;53.556;49.216;2022-07-06T08:28:29;1.70;;;1.00;;
67564;SDS011;54393;53.556;49.216;2022-07-06T08:30:56;1.00;;;0.88;;
67564;SDS011;54393;53.556;49.216;2022-07-06T08:33:23;2.42;;;1.10;;
67564;SDS011;54393;53.556;49.216;2022-07-06T08:35:49;1.85;;;0.80;;
67564;SDS011;54393;53.556;49.216;2022-07-06T08:38:16;0.80;;;0.77;;
67564;SDS011;54393;53.556;49.216;2022-07-06T08:40:43;3.20;;;1.02;;
67564;SDS011;54393;53.556;49.216;2022-07-06T08:43:11;1.52;;;1.05;;
67564;SDS011;54393;53.556;49.216;2022-07-06T08:45:39;1.40;;;0.70;;
67564;SDS011;54393;53.556;49.216;2022-07-06T08:48:08;2.10;;;0.95;;
67564;SDS011;54393;53.556;49.216;2022-07-06T08:50:36;1.55;;;0.80;;
67564;SDS011;54393;53.556;49.216;2022-07-06T08:53:03;2.25;;;0.85;;
67564;SDS011;54393;53.556;49.216;2022-07-06T08:55:30;2.30;;;0.98;;
67564;SDS011;54393;53.556;49.216;2022-07-06T08:57:57;1.12;;;0.95;;
67564;SDS011;54393;53.556;49.216;2022-07-06T09:00:24;2.25;;;0.90;;
67564;SDS011;54393;53.556;49.216;2022-07-06T09:02:51;1.70;;;0.80;;
67564;SDS011;54393;53.556;49.216;2022-07-06T09:05:22;1.83;;;1.15;;
67564;SDS011;54393;53.556;49.216;2022-07-06T09:07:50;0.98;;;0.73;;
67564;SDS011;54393;53.556;49.216;2022-07-06T09:10:17;1.02;;;0.85;;
67564;SDS011;54393;53.556;49.216;2022-07-06T09:12:45;1.15;;;0.85;;
67564;SDS011;54393;53.556;49.216;2022-07-06T09:15:11;4.78;;;1.30;;
67564;SDS011;54393;53.556;49.216;2022-07-06T09:17:38;1.83;;;0.90;;
67564;SDS011;54393;53.556;49.216;2022-07-06T09:20:06;1.42;;;1.02;;
67564;SDS011;54393;53.556;49.216;2022-07-06T09:22:37;1.95;;;1.10;;
67564;SDS011;54393;53.556;49.216;2022-07-06T09:27:38;0.62;;;0.62;;
67564;SDS011;54393;53.556;49.216;2022-07-06T09:30:06;0.90;;;0.90;;
67564;SDS011;54393;53.556;49.216;2022-07-06T09:32:40;1.20;;;0.90;;
67564;SDS011;54393;53.556;49.216;2022-07-06T09:35:08;1.30;;;1.20;;
67564;SDS011;54393;53.556;49.216;2022-07-06T09:38:05;1.95;;;0.90;;
67564;SDS011;54393;53.556;49.216;2022-07-06T09:40:51;4.55;;;1.27;;
67564;SDS011;54393;53.556;49.216;2022-07-06T09:43:19;2.05;;;0.77;;
67564;SDS011;54393;53.556;49.216;2022-07-06T09:45:54;2.42;;;1.00;;
67564;SDS011;54393;53.556;49.216;2022-07-06T09:48:22;1.65;;;0.90;;
67564;SDS011;54393;53.556;49.216;2022-07-06T09:50:59;0.77;;;0.70;;
67564;SDS011;54393;53.556;49.216;2022-07-06T09:53:34;2.30;;;1.15;;
67564;SDS011;54393;53.556;49.216;2022-07-06T09:56:01;3.17;;;1.20;;
67564;SDS011;54393;53.556;49.216;2022-07-06T09:58:28;2.37;;;1.10;;
67564;SDS011;54393;53.556;49.216;2022-07-06T10:00:54;1.95;;;1.40;;
67564;SDS011;54393;53.556;49.216;2022-07-06T10:03:21;2.67;;;1.10;;
67564;SDS011;54393;53.556;49.216;2022-07-06T10:05:48;4.03;;;1.30;;
67564;SDS011;54393;53.556;49.216;2022-07-06T10:08:15;1.20;;;1.10;;
67564;SDS011;54393;53.556;49.216;2022-07-06T10:10:42;2.55;;;1.60;;
67564;SDS011;54393;53.556;49.216;2022-07-06T10:13:09;2.12;;;1.20;;
67564;SDS011;54393;53.556;49.216;2022-07-06T10:15:39;3.72;;;1.20;;
67564;SDS011;54393;53.556;49.216;2022-07-06T10:18:07;5.82;;;1.40;;
67564;SDS011;54393;53.556;49.216;2022-07-06T10:20:36;2.17;;;1.25;;
67564;SDS011;54393;53.556;49.216;2022-07-06T10:23:04;1.35;;;1.00;;
67564;SDS011;54393;53.556;49.216;2022-07-06T10:25:31;3.00;;;1.10;;
67564;SDS011;54393;53.556;49.216;2022-07-06T10:27:58;2.08;;;1.42;;
67564;SDS011;54393;53.556;49.216;2022-07-06T10:30:25;3.03;;;1.02;;
67564;SDS011;54393;53.556;49.216;2022-07-06T10:32:53;1.48;;;1.25;;
67564;SDS011;54393;53.556;49.216;2022-07-06T10:35:21;1.33;;;1.20;;
67564;SDS011;54393;53.556;49.216;2022-07-06T10:38:04;1.45;;;1.35;;
67564;SDS011;54393;53.556;49.216;2022-07-06T10:40:34;2.20;;;1.05;;
67564;SDS011;54393;53.556;49.216;2022-07-06T10:43:21;2.22;;;1.20;;
67564;SDS011;54393;53.556;49.216;2022-07-06T10:48:16;1.27;;;0.95;;
67564;SDS011;54393;53.556;49.216;2022-07-06T10:50:47;5.40;;;1.20;;
67564;SDS011;54393;53.556;49.216;2022-07-06T10:53:15;1.92;;;1.10;;
67564;SDS011;54393;53.556;49.216;2022-07-06T10:55:44;3.37;;;1.48;;
67564;SDS011;54393;53.556;49.216;2022-07-06T10:58:13;1.83;;;1.10;;
67564;SDS011;54393;53.556;49.216;2022-07-06T11:04:05;1.15;;;1.08;;
67564;SDS011;54393;53.556;49.216;2022-07-06T11:06:11;0.93;;;0.93;;
67564;SDS011;54393;53.556;49.216;2022-07-06T11:08:46;2.65;;;1.15;;
67564;SDS011;54393;53.556;49.216;2022-07-06T11:11:20;2.08;;;1.20;;
67564;SDS011;54393;53.556;49.216;2022-07-06T11:16:21;3.20;;;1.00;;
67564;SDS011;54393;53.556;49.216;2022-07-06T11:19:01;1.75;;;0.95;;
67564;SDS011;54393;53.556;49.216;2022-07-06T11:24:07;0.82;;;0.73;;
67564;SDS011;54393;53.556;49.216;2022-07-06T11:26:35;1.20;;;0.77;;
67564;SDS011;54393;53.556;49.216;2022-07-06T11:29:06;2.50;;;1.10;;
67564;SDS011;54393;53.556;49.216;2022-07-06T11:31:34;1.58;;;0.80;;
67564;SDS011;54393;53.556;49.216;2022-07-06T11:34:05;1.70;;;0.93;;
67564;SDS011;54393;53.556;49.216;2022-07-06T11:36:33;1.35;;;1.25;;
67564;SDS011;54393;53.556;49.216;2022-07-06T11:38:59;1.25;;;0.98;;
67564;SDS011;54393;53.556;49.216;2022-07-06T11:41:26;1.70;;;1.02;;
67564;SDS011;54393;53.556;49.216;2022-07-06T11:43:52;1.15;;;0.70;;
67564;SDS011;54393;53.556;49.216;2022-07-06T11:46:23;0.98;;;0.90;;
67564;SDS011;54393;53.556;49.216;2022-07-06T11:48:52;2.30;;;0.90;;
67564;SDS011;54393;53.556;49.216;2022-07-06T11:51:20;1.62;;;1.25;;
67564;SDS011;54393;53.556;49.216;2022-07-06T11:53:57;2.10;;;0.93;;
67564;SDS011;54393;53.556;49.216;2022-07-06T11:56:25;1.60;;;0.90;;
67564;SDS011;54393;53.556;49.216;2022-07-06T11:58:53;4.65;;;2.40;;
67564;SDS011;54393;53.556;49.216;2022-07-06T12:01:27;8.63;;;3.97;;
67564;SDS011;54393;53.556;49.216;2022-07-06T12:03:59;4.25;;;2.33;;
67564;SDS011;54393;53.556;49.216;2022-07-06T12:06:29;3.67;;;1.60;;
67564;SDS011;54393;53.556;49.216;2022-07-06T12:08:57;4.90;;;2.08;;
67564;SDS011;54393;53.556;49.216;2022-07-06T12:11:25;7.60;;;2.10;;
67564;SDS011;54393;53.556;49.216;2022-07-06T12:13:54;4.43;;;1.90;;
67564;SDS011;54393;53.556;49.216;2022-07-06T12:16:26;2.40;;;1.75;;
67564;SDS011;54393;53.556;49.216;2022-07-06T12:18:56;4.70;;;1.55;;
67564;SDS011;54393;53.556;49.216;2022-07-06T12:21:22;1.60;;;1.20;;
67564;SDS011;54393;53.556;49.216;2022-07-06T12:23:49;2.47;;;1.33;;
67564;SDS011;54393;53.556;49.216;2022-07-06T12:26:20;1.77;;;1.40;;
67564;SDS011;54393;53.556;49.216;2022-07-06T12:29:10;3.45;;;1.58;;
67564;SDS011;54393;53.556;49.216;2022-07-06T12:31:40;1.70;;;1.37;;
67564;SDS011;54393;53.556;49.216;2022-07-06T12:34:35;1.80;;;1.27;;
67564;SDS011;54393;53.556;49.216;2022-07-06T12:37:06;1.90;;;1.27;;
67564;SDS011;54393;53.556;49.216;2022-07-06T12:39:40;1.75;;;1.52;;
67564;SDS011;54393;53.556;49.216;2022-07-06T12:42:07;1.65;;;1.30;;
67564;SDS011;54393;53.556;49.216;2022-07-06T12:44:33;3.28;;;1.40;;
67564;SDS011;54393;53.556;49.216;2022-07-06T12:47:09;1.35;;;1.15;;
67564;SDS011;54393;53.556;49.216;2022-07-06T12:49:36;1.45;;;1.20;;
67564;SDS011;54393;53.556;49.216;2022-07-06T12:54:40;0.82;;;0.80;;
67564;SDS011;54393;53.556;49.216;2022-07-06T12:57:15;2.72;;;1.20;;
67564;SDS011;54393;53.556;49.216;2022-07-06T13:02:19;2.08;;;1.35;;
67564;SDS011;54393;53.556;49.216;2022-07-06T13:04:58;1.40;;;0.70;;
67564;SDS011;54393;53.556;49.216;2022-07-06T13:07:26;1.45;;;0.95;;
67564;SDS011;54393;53.556;49.216;2022-07-06T13:09:53;2.10;;;1.02;;
67564;SDS011;54393;53.556;49.216;2022-07-06T13:12:20;2.80;;;1.02;;
67564;SDS011;54393;53.556;49.216;2022-07-06T13:14:48;9.70;;;1.48;;
67564;SDS011;54393;53.556;49.216;2022-07-06T13:17:14;2.83;;;1.37;;
67564;SDS011;54393;53.556;49.216;2022-07-06T13:19:41;7.60;;;1.25;;
67564;SDS011;54393;53.556;49.216;2022-07-06T13:22:08;3.83;;;1.33;;
67564;SDS011;54393;53.556;49.216;2022-07-06T13:24:34;3.15;;;1.20;;
67564;SDS011;54393;53.556;49.216;2022-07-06T13:27:01;5.43;;;1.02;;
67564;SDS011;54393;53.556;49.216;2022-07-06T13:29:28;4.03;;;1.33;;
67564;SDS011;54393;53.556;49.216;2022-07-06T13:31:54;3.10;;;1.10;;
67564;SDS011;54393;53.556;49.216;2022-07-06T13:34:21;2.83;;;1.00;;
67564;SDS011;54393;53.556;49.216;2022-07-06T13:36:49;5.07;;;1.45;;
67564;SDS011;54393;53.556;49.216;2022-07-06T13:39:16;1.77;;;1.25;;
67564;SDS011;54393;53.556;49.216;2022-07-06T13:41:42;1.35;;;0.90;;
67564;SDS011;54393;53.556;49.216;2022-07-06T13:44:08;2.40;;;1.23;;
67564;SDS011;54393;53.556;49.216;2022-07-06T13:46:37;3.72;;;1.12;;
67564;SDS011;54393;53.556;49.216;2022-07-06T13:49:08;4.70;;;1.17;;
67564;SDS011;54393;53.556;49.216;2022-07-06T13:51:34;3.08;;;1.00;;
67564;SDS011;54393;53.556;49.216;2022-07-06T13:54:01;4.95;;;1.00;;
67564;SDS011;54393;53.556;49.216;2022-07-06T13:56:28;1.75;;;0.70;;
67564;SDS011;54393;53.556;49.216;2022-07-06T13:58:54;1.80;;;0.80;;
67564;SDS011;54393;53.556;49.216;2022-07-06T14:01:21;2.10;;;1.00;;
67564;SDS011;54393;53.556;49.216;2022-07-06T14:03:47;1.00;;;0.80;;
67564;SDS011;54393;53.556;49.216;2022-07-06T14:06:14;1.00;;;0.73;;
67564;SDS011;54393;53.556;49.216;2022-07-06T14:08:41;0.95;;;0.70;;
67564;SDS011;54393;53.556;49.216;2022-07-06T14:11:09;2.53;;;0.90;;
67564;SDS011;54393;53.556;49.216;2022-07-06T14:13:36;1.80;;;1.00;;
67564;SDS011;54393;53.556;49.216;2022-07-06T14:16:04;1.98;;;0.80;;
67564;SDS011;54393;53.556;49.216;2022-07-06T14:18:31;1.08;;;0.95;;
67564;SDS011;54393;53.556;49.216;2022-07-06T14:20:57;1.42;;;1.00;;
67564;SDS011;54393;53.556;49.216;2022-07-06T14:23:25;2.17;;;1.02;;
67564;SDS011;54393;53.556;49.216;2022-07-06T14:25:54;2.65;;;0.82;;
67564;SDS011;54393;53.556;49.216;2022-07-06T14:28:21;1.33;;;0.95;;
67564;SDS011;54393;53.556;49.216;2022-07-06T14:30:48;1.23;;;0.62;;
67564;SDS011;54393;53.556;49.216;2022-07-06T14:33:14;1.50;;;0.90;;
67564;SDS011;54393;53.556;49.216;2022-07-06T14:35:45;1.37;;;0.70;;
67564;SDS011;54393;53.556;49.216;2022-07-06T14:38:13;1.00;;;0.80;;
67564;SDS011;54393;53.556;49.216;2022-07-06T14:40:40;1.90;;;0.70;;
67564;SDS011;54393;53.556;49.216;2022-07-06T14:43:06;0.73;;;0.70;;
67564;SDS011;54393;53.556;49.216;2022-07-06T14:45:33;1.65;;;0.93;;
67564;SDS011;54393;53.556;49.216;2022-07-06T14:48:00;0.80;;;0.80;;
67564;SDS011;54393;53.556;49.216;2022-07-06T14:50:27;0.77;;;0.77;;
67564;SDS011;54393;53.556;49.216;2022-07-06T14:52:54;0.70;;;0.60;;
67564;SDS011;54393;53.556;49.216;2022-07-06T14:55:21;0.70;;;0.70;;